Pagina principale
METAR-TAF:

METAR-TAF

Aeroporti :

Aeroporto di Pyongyang-Sunan

Pyongyang, Corea del Nord

latitudine: 39-02N, longitudine: 125-47E, altezza: 36 m

METAR: mancante

Ora: 07:52 (23:22 UTC)

Previsione

Il bollettino è stato emesso 18 ore e 42 minuti fa, alle 04:40 UTC
Previsione valida dal 24 alle 06 UTC al 25 alle 06 UTC
Vento 10 kt da ovest con raffiche fino a 19 kt
Visibilità 10 km o più
nessuna nube inferiore a 1500 m e nessun cumulonembo

TAF: ZKPY 240440Z 2406/2506 27005G10MPS CAVOK TX26/2407Z TN14/2421Z

Osservazioni e previsioni meteorologiche di più di 4000 aeroporti (messaggi METAR e TAF).

Le stazioni disponibili sono rappresentate dai dischi gialli e rossi sulla carta.

Puntare il mouse per vedere il nome della stazione.

Clicca sopra per visualizzare le osservazioni e previsioni meteorologiche.

Per cambiare la mappa : fare clic sui pulsanti verdi con una croce nera per ingrandire, il pulsante verde con un trattino per diminuire, o sulla freccia verde per le mappe adiacenti.


METAR-TAF: